Teddy Meyer — WDF9635 — position and weather

sailwx.info

Track history (hours):
 
Tides and Currents Weather Stations Pressure Air Temp Water Temp Dewpoint Dewpoint Depression Visibility Wind Speed Wind Dir Waves Ship Positions

Teddy Meyer

Owner: LeBeouf Bros. Towing, LLC, Houma, LA. More information available from US FCC via Universal Licensing System and Coast Guard Vessel Documentation Center.

Last reported at 2016-Jan-07 10:20 UTC. Time now 2016-Feb-07 08:39 UTC.
Position N 29°34' W 090°33'.
Warning: this ship's position is 30 days out of date.

; draft 3 m.

MMSI: 367507220.

Date/timePositionNaut miles runAvg speedWind from/ knotsBaromVisibWave heightAir tempDewpointWater temp
2016-Jan-07 10:20N 29°34' W 090°33'5 6.7
2016-Jan-07 09:33N 29°36' W 090°39'4 3.8
2016-Jan-07 08:34N 29°35' W 090°43'6 6.1
2016-Jan-07 07:33N 29°32' W 090°49'117 5.2
2016-Jan-06 09:06N 29°56' W 093°02'3 6.1
2016-Jan-06 08:34N 29°56' W 093°05'4 3.6
2016-Jan-06 07:34N 29°56' W 093°10'6 6.1
2016-Jan-06 06:33N 30°01' W 093°14'5 5.5
2016-Jan-06 05:33N 30°05' W 093°18'1 0.9
2016-Jan-06 04:33N 30°06' W 093°18'0 0.5
2016-Jan-06 03:33N 30°06' W 093°19'0 0.1
2016-Jan-06 02:33N 30°06' W 093°19'0 0.5
2016-Jan-06 01:33N 30°06' W 093°19'6 5.6
2016-Jan-06 00:33N 30°11' W 093°18'3 2.9
2016-Jan-05 23:33N 30°14' W 093°16'0 0.5
2016-Jan-05 22:33N 30°14' W 093°15'0 0.0
2016-Jan-05 21:33N 30°14' W 093°15'0 0.0
2016-Jan-05 20:33N 30°14' W 093°15'0 0.0
2016-Jan-05 19:33N 30°14' W 093°15'0 0.0
2016-Jan-05 18:33N 30°14' W 093°15'0 0.0
2016-Jan-05 17:33N 30°14' W 093°15'0 0.0
2016-Jan-05 16:33N 30°14' W 093°15'0 0.0
2016-Jan-05 15:33N 30°14' W 093°15'0 0.0
2016-Jan-05 14:33N 30°14' W 093°15'0 0.0
2016-Jan-05 13:33N 30°14' W 093°15'0 0.0
2016-Jan-05 12:33N 30°14' W 093°15'0 0.0
2016-Jan-05 11:33N 30°14' W 093°15'0 0.0
2016-Jan-05 10:33N 30°14' W 093°15'0 0.0
2016-Jan-05 09:33N 30°14' W 093°15'0 0.0
2016-Jan-05 08:33N 30°14' W 093°15'0 0.0
2016-Jan-05 07:33N 30°14' W 093°15'0 0.0
2016-Jan-05 06:33N 30°14' W 093°15'0 0.0
2016-Jan-05 05:33N 30°14' W 093°15'0 0.0
2016-Jan-05 04:33N 30°14' W 093°15'0 0.0
2016-Jan-05 03:33N 30°14' W 093°15'0 0.0
2016-Jan-05 02:33N 30°14' W 093°15'0 0.0
2016-Jan-05 01:33N 30°14' W 093°15'0 0.0
2016-Jan-05 00:33N 30°14' W 093°15'0 0.0
2016-Jan-04 23:33N 30°14' W 093°15'0 0.0
2016-Jan-04 22:33N 30°14' W 093°15'0 0.0
2016-Jan-04 21:33N 30°14' W 093°15'0 0.0
2016-Jan-04 20:33N 30°14' W 093°15'0 0.0
2016-Jan-04 19:33N 30°14' W 093°15'0 0.0
2016-Jan-04 18:33N 30°14' W 093°15'0 0.0
2016-Jan-04 17:33N 30°14' W 093°15'0 0.0
2016-Jan-04 16:30N 30°14' W 093°15'0 0.5
2016-Jan-04 15:33N 30°14' W 093°16'0 0.3
2016-Jan-04 14:33N 30°13' W 093°16'0 0.0
2016-Jan-04 13:33N 30°13' W 093°16'0 0.0
2016-Jan-04 12:33N 30°13' W 093°16'0 0.0
2016-Jan-04 11:33N 30°13' W 093°16'0 0.0
2016-Jan-04 10:33N 30°13' W 093°16'0 0.0
2016-Jan-04 09:33N 30°13' W 093°16'0 0.0
2016-Jan-04 08:33N 30°13' W 093°16'0 0.0
2016-Jan-04 07:33N 30°13' W 093°16'0 0.0
2016-Jan-04 06:33N 30°13' W 093°16'0 0.0
2016-Jan-04 05:33N 30°13' W 093°16'0 0.0
2016-Jan-04 04:33N 30°13' W 093°16'0 0.0
2016-Jan-04 03:33N 30°13' W 093°16'0 0.0
2016-Jan-04 02:33N 30°13' W 093°16'0 0.0
2016-Jan-04 01:33N 30°13' W 093°16'0 0.0
2016-Jan-04 00:33N 30°13' W 093°16'0 0.0
2016-Jan-03 23:33N 30°13' W 093°16'0 0.0
2016-Jan-03 22:33N 30°13' W 093°16'0 0.0
2016-Jan-03 21:33N 30°13' W 093°16'0 0.0
2016-Jan-03 20:33N 30°13' W 093°16'0 0.0
2016-Jan-03 19:33N 30°13' W 093°16'0 0.0
2016-Jan-03 18:32N 30°13' W 093°16'0 0.0
2016-Jan-03 17:33N 30°13' W 093°16'0 0.0
2016-Jan-03 16:33N 30°13' W 093°16'0 0.0
2016-Jan-03 15:33N 30°13' W 093°16'0 0.0
2016-Jan-03 14:33N 30°13' W 093°16'0 0.0
2016-Jan-03 13:33N 30°13' W 093°16'0 0.0
2016-Jan-03 12:33N 30°13' W 093°16'0 0.0
2016-Jan-03 11:33N 30°13' W 093°16'0 0.0
2016-Jan-03 10:33N 30°13' W 093°16'0 0.0
2016-Jan-03 09:33N 30°13' W 093°16'0 0.0
2016-Jan-03 08:33N 30°13' W 093°16'0 0.0
2016-Jan-03 07:33N 30°13' W 093°16'0 0.0
2016-Jan-03 06:33N 30°13' W 093°16'0 0.0
2016-Jan-03 05:33N 30°13' W 093°16'0 0.0
2016-Jan-03 04:33N 30°13' W 093°16'0 0.0
2016-Jan-03 03:33N 30°13' W 093°16'0 0.0
2016-Jan-03 02:33N 30°13' W 093°16'0 0.0
2016-Jan-03 01:33N 30°13' W 093°16'0 0.0
2016-Jan-03 00:33N 30°13' W 093°16'0 0.0
2016-Jan-02 23:33N 30°13' W 093°16'0 0.0
2016-Jan-02 22:33N 30°13' W 093°16'0 0.0
2016-Jan-02 21:33N 30°13' W 093°16'0 0.0
2016-Jan-02 20:33N 30°13' W 093°16'0 0.0
2016-Jan-02 19:33N 30°13' W 093°16'0 0.0
2016-Jan-02 18:33N 30°13' W 093°16'0 0.0
2016-Jan-02 17:33N 30°13' W 093°16'0 0.0
2016-Jan-02 16:33N 30°13' W 093°16'0 0.0
2016-Jan-02 15:32N 30°13' W 093°16'0 0.0
2016-Jan-02 14:33N 30°13' W 093°16'0 0.0
2016-Jan-02 13:33N 30°13' W 093°16'0 0.0
2016-Jan-02 12:33N 30°13' W 093°16'0 0.0
2016-Jan-02 11:33N 30°13' W 093°16'0 0.0
2016-Jan-02 10:33N 30°13' W 093°16'0 0.0
2016-Jan-02 09:33N 30°13' W 093°16'0 0.0
2016-Jan-02 08:33N 30°13' W 093°16'0 0.0
2016-Jan-02 07:33N 30°13' W 093°16'0 0.0
2016-Jan-02 06:33N 30°13' W 093°16'0 0.0
2016-Jan-02 05:33N 30°13' W 093°16'0 0.0
2016-Jan-02 04:33N 30°13' W 093°16'0 0.0
2016-Jan-02 03:33N 30°13' W 093°16'0 0.0
2016-Jan-02 02:33N 30°13' W 093°16'0 0.0
2016-Jan-02 01:33N 30°13' W 093°16'0 0.0
2016-Jan-02 00:33N 30°13' W 093°16'0 0.0
2016-Jan-01 23:33N 30°13' W 093°16'0 0.0
2016-Jan-01 22:33N 30°13' W 093°16'0 0.0
2016-Jan-01 21:33N 30°13' W 093°16'0 0.0
2016-Jan-01 20:33N 30°13' W 093°16'0 0.0
2016-Jan-01 19:33N 30°13' W 093°16'0 0.0
2016-Jan-01 18:33N 30°13' W 093°16'0 0.0
2016-Jan-01 17:33N 30°13' W 093°16'0 0.0
2016-Jan-01 16:33N 30°13' W 093°16'0 0.0
2016-Jan-01 15:33N 30°13' W 093°16'0 0.0
2016-Jan-01 14:33N 30°13' W 093°16'0 0.0
2016-Jan-01 13:33N 30°13' W 093°16'0 0.0
2016-Jan-01 12:33N 30°13' W 093°16'0 0.0
2016-Jan-01 11:33N 30°13' W 093°16'0 0.0
2016-Jan-01 10:33N 30°13' W 093°16'0 0.0
2016-Jan-01 09:33N 30°13' W 093°16'0 0.0
2016-Jan-01 08:33N 30°13' W 093°16'0 0.0
2016-Jan-01 07:33N 30°13' W 093°16'0 0.0
2016-Jan-01 06:33N 30°13' W 093°16'0 0.0
2016-Jan-01 05:33N 30°13' W 093°16'0 0.0
2016-Jan-01 04:33N 30°13' W 093°16'0 0.0
2016-Jan-01 03:33N 30°13' W 093°16'0 0.0
2016-Jan-01 02:33N 30°13' W 093°16'0 0.0
2016-Jan-01 01:33N 30°13' W 093°16'0 0.0
2016-Jan-01 00:33N 30°13' W 093°16'0 0.0
2015-Dec-31 23:33N 30°13' W 093°16'0 0.0
2015-Dec-31 22:33N 30°13' W 093°16'0 0.0
2015-Dec-31 21:33N 30°13' W 093°16'0 0.0
2015-Dec-31 20:33N 30°13' W 093°16'0 0.0
2015-Dec-31 19:33N 30°13' W 093°16'0 0.0
2015-Dec-31 18:33N 30°13' W 093°16'0 0.0
2015-Dec-31 17:33N 30°13' W 093°16'0 0.0
2015-Dec-31 16:33N 30°13' W 093°16'0 0.0
2015-Dec-31 15:33N 30°13' W 093°16'0 0.0
2015-Dec-31 14:33N 30°13' W 093°16'0 0.0
2015-Dec-31 13:33N 30°13' W 093°16'0 0.0
2015-Dec-31 12:33N 30°13' W 093°16'0 0.0
2015-Dec-31 11:33N 30°13' W 093°16'0 0.0
2015-Dec-31 10:33N 30°13' W 093°16'0 0.0
2015-Dec-31 09:33N 30°13' W 093°16'0 0.0
2015-Dec-31 08:33N 30°13' W 093°16'0 0.0
2015-Dec-31 07:33N 30°13' W 093°16'0 0.0
2015-Dec-31 06:33N 30°13' W 093°16'0 0.0
2015-Dec-31 05:33N 30°13' W 093°16'0 0.0
2015-Dec-31 04:33N 30°13' W 093°16'1 1.3
2015-Dec-31 03:33N 30°12' W 093°17'7 6.9
2015-Dec-31 02:33N 30°06' W 093°20'4 3.9
2015-Dec-31 01:33N 30°04' W 093°23'7 6.7
2015-Dec-31 00:33N 30°04' W 093°31'7 6.8
2015-Dec-30 23:33N 30°04' W 093°39'5 5.5
2015-Dec-30 22:33N 30°01' W 093°45'7 5.9
2015-Dec-30 21:25N 29°58' W 093°51'6 6.1
2015-Dec-30 20:31N 29°53' W 093°55'55 5.0
2015-Dec-30 09:33N 29°29' W 094°51'7 7.5
2015-Dec-30 08:33N 29°35' W 094°56'7 7.4
2015-Dec-30 07:33N 29°42' W 094°60'6 6.3
2015-Dec-30 06:33N 29°46' W 095°05'1 1.2
2015-Dec-30 05:32N 29°47' W 095°04'1 0.6
2015-Dec-30 04:33N 29°47' W 095°04'  
Track history (hours):
 
Tides and Currents Weather Stations Pressure Air Temp Water Temp Dewpoint Dewpoint Depression Visibility Wind Speed Wind Dir Waves Ship Positions

Teddy Meyer

Owner: LeBeouf Bros. Towing, LLC, Houma, LA. More information available from US FCC via Universal Licensing System and Coast Guard Vessel Documentation Center.

Last reported at 2016-Jan-07 10:20 UTC. Time now 2016-Feb-07 08:39 UTC.
Position N 29°34' W 090°33'.
Warning: this ship's position is 30 days out of date.

; draft 3 m.

MMSI: 367507220.

Date/timePositionNaut miles runAvg speedWind from/ knotsBaromVisibWave heightAir tempDewpointWater temp
2016-Jan-07 10:20N 29°34' W 090°33'5 6.7
2016-Jan-07 09:33N 29°36' W 090°39'4 3.8
2016-Jan-07 08:34N 29°35' W 090°43'6 6.1
2016-Jan-07 07:33N 29°32' W 090°49'117 5.2
2016-Jan-06 09:06N 29°56' W 093°02'3 6.1
2016-Jan-06 08:34N 29°56' W 093°05'4 3.6
2016-Jan-06 07:34N 29°56' W 093°10'6 6.1
2016-Jan-06 06:33N 30°01' W 093°14'5 5.5
2016-Jan-06 05:33N 30°05' W 093°18'1 0.9
2016-Jan-06 04:33N 30°06' W 093°18'0 0.5
2016-Jan-06 03:33N 30°06' W 093°19'0 0.1
2016-Jan-06 02:33N 30°06' W 093°19'0 0.5
2016-Jan-06 01:33N 30°06' W 093°19'6 5.6
2016-Jan-06 00:33N 30°11' W 093°18'3 2.9
2016-Jan-05 23:33N 30°14' W 093°16'0 0.5
2016-Jan-05 22:33N 30°14' W 093°15'0 0.0
2016-Jan-05 21:33N 30°14' W 093°15'0 0.0
2016-Jan-05 20:33N 30°14' W 093°15'0 0.0
2016-Jan-05 19:33N 30°14' W 093°15'0 0.0
2016-Jan-05 18:33N 30°14' W 093°15'0 0.0
2016-Jan-05 17:33N 30°14' W 093°15'0 0.0
2016-Jan-05 16:33N 30°14' W 093°15'0 0.0
2016-Jan-05 15:33N 30°14' W 093°15'0 0.0
2016-Jan-05 14:33N 30°14' W 093°15'0 0.0
2016-Jan-05 13:33N 30°14' W 093°15'0 0.0
2016-Jan-05 12:33N 30°14' W 093°15'0 0.0
2016-Jan-05 11:33N 30°14' W 093°15'0 0.0
2016-Jan-05 10:33N 30°14' W 093°15'0 0.0
2016-Jan-05 09:33N 30°14' W 093°15'0 0.0
2016-Jan-05 08:33N 30°14' W 093°15'0 0.0
2016-Jan-05 07:33N 30°14' W 093°15'0 0.0
2016-Jan-05 06:33N 30°14' W 093°15'0 0.0
2016-Jan-05 05:33N 30°14' W 093°15'0 0.0
2016-Jan-05 04:33N 30°14' W 093°15'0 0.0
2016-Jan-05 03:33N 30°14' W 093°15'0 0.0
2016-Jan-05 02:33N 30°14' W 093°15'0 0.0
2016-Jan-05 01:33N 30°14' W 093°15'0 0.0
2016-Jan-05 00:33N 30°14' W 093°15'0 0.0
2016-Jan-04 23:33N 30°14' W 093°15'0 0.0
2016-Jan-04 22:33N 30°14' W 093°15'0 0.0
2016-Jan-04 21:33N 30°14' W 093°15'0 0.0
2016-Jan-04 20:33N 30°14' W 093°15'0 0.0
2016-Jan-04 19:33N 30°14' W 093°15'0 0.0
2016-Jan-04 18:33N 30°14' W 093°15'0 0.0
2016-Jan-04 17:33N 30°14' W 093°15'0 0.0
2016-Jan-04 16:30N 30°14' W 093°15'0 0.5
2016-Jan-04 15:33N 30°14' W 093°16'0 0.3
2016-Jan-04 14:33N 30°13' W 093°16'0 0.0
2016-Jan-04 13:33N 30°13' W 093°16'0 0.0
2016-Jan-04 12:33N 30°13' W 093°16'0 0.0
2016-Jan-04 11:33N 30°13' W 093°16'0 0.0
2016-Jan-04 10:33N 30°13' W 093°16'0 0.0
2016-Jan-04 09:33N 30°13' W 093°16'0 0.0
2016-Jan-04 08:33N 30°13' W 093°16'0 0.0
2016-Jan-04 07:33N 30°13' W 093°16'0 0.0
2016-Jan-04 06:33N 30°13' W 093°16'0 0.0
2016-Jan-04 05:33N 30°13' W 093°16'0 0.0
2016-Jan-04 04:33N 30°13' W 093°16'0 0.0
2016-Jan-04 03:33N 30°13' W 093°16'0 0.0
2016-Jan-04 02:33N 30°13' W 093°16'0 0.0
2016-Jan-04 01:33N 30°13' W 093°16'0 0.0
2016-Jan-04 00:33N 30°13' W 093°16'0 0.0
2016-Jan-03 23:33N 30°13' W 093°16'0 0.0
2016-Jan-03 22:33N 30°13' W 093°16'0 0.0
2016-Jan-03 21:33N 30°13' W 093°16'0 0.0
2016-Jan-03 20:33N 30°13' W 093°16'0 0.0
2016-Jan-03 19:33N 30°13' W 093°16'0 0.0
2016-Jan-03 18:32N 30°13' W 093°16'0 0.0
2016-Jan-03 17:33N 30°13' W 093°16'0 0.0
2016-Jan-03 16:33N 30°13' W 093°16'0 0.0
2016-Jan-03 15:33N 30°13' W 093°16'0 0.0
2016-Jan-03 14:33N 30°13' W 093°16'0 0.0
2016-Jan-03 13:33N 30°13' W 093°16'0 0.0
2016-Jan-03 12:33N 30°13' W 093°16'0 0.0
2016-Jan-03 11:33N 30°13' W 093°16'0 0.0
2016-Jan-03 10:33N 30°13' W 093°16'0 0.0
2016-Jan-03 09:33N 30°13' W 093°16'0 0.0
2016-Jan-03 08:33N 30°13' W 093°16'0 0.0
2016-Jan-03 07:33N 30°13' W 093°16'0 0.0
2016-Jan-03 06:33N 30°13' W 093°16'0 0.0
2016-Jan-03 05:33N 30°13' W 093°16'0 0.0
2016-Jan-03 04:33N 30°13' W 093°16'0 0.0
2016-Jan-03 03:33N 30°13' W 093°16'0 0.0
2016-Jan-03 02:33N 30°13' W 093°16'0 0.0
2016-Jan-03 01:33N 30°13' W 093°16'0 0.0
2016-Jan-03 00:33N 30°13' W 093°16'0 0.0
2016-Jan-02 23:33N 30°13' W 093°16'0 0.0
2016-Jan-02 22:33N 30°13' W 093°16'0 0.0
2016-Jan-02 21:33N 30°13' W 093°16'0 0.0
2016-Jan-02 20:33N 30°13' W 093°16'0 0.0
2016-Jan-02 19:33N 30°13' W 093°16'0 0.0
2016-Jan-02 18:33N 30°13' W 093°16'0 0.0
2016-Jan-02 17:33N 30°13' W 093°16'0 0.0
2016-Jan-02 16:33N 30°13' W 093°16'0 0.0
2016-Jan-02 15:32N 30°13' W 093°16'0 0.0
2016-Jan-02 14:33N 30°13' W 093°16'0 0.0
2016-Jan-02 13:33N 30°13' W 093°16'0 0.0
2016-Jan-02 12:33N 30°13' W 093°16'0 0.0
2016-Jan-02 11:33N 30°13' W 093°16'0 0.0
2016-Jan-02 10:33N 30°13' W 093°16'0 0.0
2016-Jan-02 09:33N 30°13' W 093°16'0 0.0
2016-Jan-02 08:33N 30°13' W 093°16'0 0.0
2016-Jan-02 07:33N 30°13' W 093°16'0 0.0
2016-Jan-02 06:33N 30°13' W 093°16'0 0.0
2016-Jan-02 05:33N 30°13' W 093°16'0 0.0
2016-Jan-02 04:33N 30°13' W 093°16'0 0.0
2016-Jan-02 03:33N 30°13' W 093°16'0 0.0
2016-Jan-02 02:33N 30°13' W 093°16'0 0.0
2016-Jan-02 01:33N 30°13' W 093°16'0 0.0
2016-Jan-02 00:33N 30°13' W 093°16'0 0.0
2016-Jan-01 23:33N 30°13' W 093°16'0 0.0
2016-Jan-01 22:33N 30°13' W 093°16'0 0.0
2016-Jan-01 21:33N 30°13' W 093°16'0 0.0
2016-Jan-01 20:33N 30°13' W 093°16'0 0.0
2016-Jan-01 19:33N 30°13' W 093°16'0 0.0
2016-Jan-01 18:33N 30°13' W 093°16'0 0.0
2016-Jan-01 17:33N 30°13' W 093°16'0 0.0
2016-Jan-01 16:33N 30°13' W 093°16'0 0.0
2016-Jan-01 15:33N 30°13' W 093°16'0 0.0
2016-Jan-01 14:33N 30°13' W 093°16'0 0.0
2016-Jan-01 13:33N 30°13' W 093°16'0 0.0
2016-Jan-01 12:33N 30°13' W 093°16'0 0.0
2016-Jan-01 11:33N 30°13' W 093°16'0 0.0
2016-Jan-01 10:33N 30°13' W 093°16'0 0.0
2016-Jan-01 09:33N 30°13' W 093°16'0 0.0
2016-Jan-01 08:33N 30°13' W 093°16'0 0.0
2016-Jan-01 07:33N 30°13' W 093°16'0 0.0
2016-Jan-01 06:33N 30°13' W 093°16'0 0.0
2016-Jan-01 05:33N 30°13' W 093°16'0 0.0
2016-Jan-01 04:33N 30°13' W 093°16'0 0.0
2016-Jan-01 03:33N 30°13' W 093°16'0 0.0
2016-Jan-01 02:33N 30°13' W 093°16'0 0.0
2016-Jan-01 01:33N 30°13' W 093°16'0 0.0
2016-Jan-01 00:33N 30°13' W 093°16'0 0.0
2015-Dec-31 23:33N 30°13' W 093°16'0 0.0
2015-Dec-31 22:33N 30°13' W 093°16'0 0.0
2015-Dec-31 21:33N 30°13' W 093°16'0 0.0
2015-Dec-31 20:33N 30°13' W 093°16'0 0.0
2015-Dec-31 19:33N 30°13' W 093°16'0 0.0
2015-Dec-31 18:33N 30°13' W 093°16'0 0.0
2015-Dec-31 17:33N 30°13' W 093°16'0 0.0
2015-Dec-31 16:33N 30°13' W 093°16'0 0.0
2015-Dec-31 15:33N 30°13' W 093°16'0 0.0
2015-Dec-31 14:33N 30°13' W 093°16'0 0.0
2015-Dec-31 13:33N 30°13' W 093°16'0 0.0
2015-Dec-31 12:33N 30°13' W 093°16'0 0.0
2015-Dec-31 11:33N 30°13' W 093°16'0 0.0
2015-Dec-31 10:33N 30°13' W 093°16'0 0.0
2015-Dec-31 09:33N 30°13' W 093°16'0 0.0
2015-Dec-31 08:33N 30°13' W 093°16'0 0.0
2015-Dec-31 07:33N 30°13' W 093°16'0 0.0
2015-Dec-31 06:33N 30°13' W 093°16'0 0.0
2015-Dec-31 05:33N 30°13' W 093°16'0 0.0
2015-Dec-31 04:33N 30°13' W 093°16'1 1.3
2015-Dec-31 03:33N 30°12' W 093°17'7 6.9
2015-Dec-31 02:33N 30°06' W 093°20'4 3.9
2015-Dec-31 01:33N 30°04' W 093°23'7 6.7
2015-Dec-31 00:33N 30°04' W 093°31'7 6.8
2015-Dec-30 23:33N 30°04' W 093°39'5 5.5
2015-Dec-30 22:33N 30°01' W 093°45'7 5.9
2015-Dec-30 21:25N 29°58' W 093°51'6 6.1
2015-Dec-30 20:31N 29°53' W 093°55'55 5.0
2015-Dec-30 09:33N 29°29' W 094°51'7 7.5
2015-Dec-30 08:33N 29°35' W 094°56'7 7.4
2015-Dec-30 07:33N 29°42' W 094°60'6 6.3
2015-Dec-30 06:33N 29°46' W 095°05'1 1.2
2015-Dec-30 05:32N 29°47' W 095°04'1 0.6
2015-Dec-30 04:33N 29°47' W 095°04'  

Dump ship's entire track history